sensor_id;sensor_type;location;lat;lon;timestamp;pressure;altitude;pressure_sealevel;temperature
31921;BMP280;66485;52.128;4.436;2023-02-27T00:01:32;103080.44;;;16.91
31921;BMP280;66485;52.128;4.436;2023-02-27T00:03:58;103075.97;;;16.98
31921;BMP280;66485;52.128;4.436;2023-02-27T00:06:25;103085.25;;;16.97
31921;BMP280;66485;52.128;4.436;2023-02-27T00:08:50;103085.25;;;16.97
31921;BMP280;66485;52.128;4.436;2023-02-27T00:11:15;103093.47;;;17.01
31921;BMP280;66485;52.128;4.436;2023-02-27T00:13:40;103085.00;;;17.02
31921;BMP280;66485;52.128;4.436;2023-02-27T00:16:07;103086.22;;;17.05
31921;BMP280;66485;52.128;4.436;2023-02-27T00:18:33;103083.88;;;17.03
31921;BMP280;66485;52.128;4.436;2023-02-27T00:20:58;103083.88;;;17.03
31921;BMP280;66485;52.128;4.436;2023-02-27T00:23:24;103085.00;;;17.02
31921;BMP280;66485;52.128;4.436;2023-02-27T00:25:50;103085.00;;;17.02
31921;BMP280;66485;52.128;4.436;2023-02-27T00:28:16;103078.84;;;17.06
31921;BMP280;66485;52.128;4.436;2023-02-27T00:30:41;103082.72;;;17.05
31921;BMP280;66485;52.128;4.436;2023-02-27T00:33:07;103082.72;;;17.05
31921;BMP280;66485;52.128;4.436;2023-02-27T00:35:33;103074.34;;;16.94
31921;BMP280;66485;52.128;4.436;2023-02-27T00:37:58;103071.97;;;16.92
31921;BMP280;66485;52.128;4.436;2023-02-27T00:40:23;103081.22;;;16.91
31921;BMP280;66485;52.128;4.436;2023-02-27T00:42:52;103081.66;;;16.93
31921;BMP280;66485;52.128;4.436;2023-02-27T00:45:17;103087.44;;;16.92
31921;BMP280;66485;52.128;4.436;2023-02-27T00:47:44;103087.44;;;16.92
31921;BMP280;66485;52.128;4.436;2023-02-27T00:50:11;103079.22;;;16.88
31921;BMP280;66485;52.128;4.436;2023-02-27T00:52:37;103086.19;;;16.89
31921;BMP280;66485;52.128;4.436;2023-02-27T00:55:02;103086.19;;;16.89
31921;BMP280;66485;52.128;4.436;2023-02-27T00:57:29;103089.75;;;16.78
31921;BMP280;66485;52.128;4.436;2023-02-27T00:59:54;103096.84;;;16.82
31921;BMP280;66485;52.128;4.436;2023-02-27T01:02:20;103086.88;;;16.86
31921;BMP280;66485;52.128;4.436;2023-02-27T01:04:45;103091.50;;;16.86
31921;BMP280;66485;52.128;4.436;2023-02-27T01:07:10;103084.63;;;16.88
31921;BMP280;66485;52.128;4.436;2023-02-27T01:09:36;103084.63;;;16.88
31921;BMP280;66485;52.128;4.436;2023-02-27T01:12:01;103079.66;;;16.90
31921;BMP280;66485;52.128;4.436;2023-02-27T01:14:26;103081.56;;;16.90
31921;BMP280;66485;52.128;4.436;2023-02-27T01:16:52;103082.69;;;16.89
31921;BMP280;66485;52.128;4.436;2023-02-27T01:19:17;103079.22;;;16.88
31921;BMP280;66485;52.128;4.436;2023-02-27T01:21:43;103077.63;;;16.87
31921;BMP280;66485;52.128;4.436;2023-02-27T01:24:09;103076.06;;;16.86
31921;BMP280;66485;52.128;4.436;2023-02-27T01:26:34;103079.09;;;16.85
31921;BMP280;66485;52.128;4.436;2023-02-27T01:29:00;103077.97;;;16.86
31921;BMP280;66485;52.128;4.436;2023-02-27T01:31:25;103081.31;;;16.79
31921;BMP280;66485;52.128;4.436;2023-02-27T01:33:50;103078.63;;;16.79
31921;BMP280;66485;52.128;4.436;2023-02-27T01:36:16;103073.19;;;16.79
31921;BMP280;66485;52.128;4.436;2023-02-27T01:38:41;103073.19;;;16.79
31921;BMP280;66485;52.128;4.436;2023-02-27T01:41:07;103072.72;;;16.77
31921;BMP280;66485;52.128;4.436;2023-02-27T01:43:33;103071.16;;;16.76
31921;BMP280;66485;52.128;4.436;2023-02-27T01:45:58;103073.63;;;16.81
31921;BMP280;66485;52.128;4.436;2023-02-27T01:48:31;103073.63;;;16.81
31921;BMP280;66485;52.128;4.436;2023-02-27T01:53:57;103069.41;;;16.68
31921;BMP280;66485;52.128;4.436;2023-02-27T01:56:26;103074.81;;;16.68
31921;BMP280;66485;52.128;4.436;2023-02-27T01:58:54;103073.44;;;16.74
31921;BMP280;66485;52.128;4.436;2023-02-27T02:01:21;103073.44;;;16.74
31921;BMP280;66485;52.128;4.436;2023-02-27T02:06:36;103064.25;;;16.79
31921;BMP280;66485;52.128;4.436;2023-02-27T02:09:02;103065.84;;;16.80
31921;BMP280;66485;52.128;4.436;2023-02-27T02:11:28;103065.84;;;16.80
31921;BMP280;66485;52.128;4.436;2023-02-27T02:13:58;103066.63;;;16.80
31921;BMP280;66485;52.128;4.436;2023-02-27T02:22:17;103070.50;;;16.79
31921;BMP280;66485;52.128;4.436;2023-02-27T02:25:18;103073.84;;;16.76
31921;BMP280;66485;52.128;4.436;2023-02-27T02:54:56;103069.41;;;16.68
31921;BMP280;66485;52.128;4.436;2023-02-27T02:57:26;103071.66;;;16.66
31921;BMP280;66485;52.128;4.436;2023-02-27T03:00:00;103075.16;;;16.66
31921;BMP280;66485;52.128;4.436;2023-02-27T03:02:31;103078.84;;;16.74
31921;BMP280;66485;52.128;4.436;2023-02-27T03:05:13;103082.59;;;16.70
31921;BMP280;66485;52.128;4.436;2023-02-27T03:07:50;103082.50;;;16.66
31921;BMP280;66485;52.128;4.436;2023-02-27T03:10:32;103080.41;;;16.75
31921;BMP280;66485;52.128;4.436;2023-02-27T03:13:03;103086.19;;;16.74
31921;BMP280;66485;52.128;4.436;2023-02-27T03:15:46;103086.19;;;16.74
31921;BMP280;66485;52.128;4.436;2023-02-27T03:18:16;103073.84;;;16.76
31921;BMP280;66485;52.128;4.436;2023-02-27T03:20:53;103073.84;;;16.76
31921;BMP280;66485;52.128;4.436;2023-02-27T03:23:28;103079.72;;;16.78
31921;BMP280;66485;52.128;4.436;2023-02-27T03:25:54;103088.19;;;16.77
31921;BMP280;66485;52.128;4.436;2023-02-27T03:28:24;103088.19;;;16.77
31921;BMP280;66485;52.128;4.436;2023-02-27T03:31:00;103083.91;;;16.76
31921;BMP280;66485;52.128;4.436;2023-02-27T03:33:42;103080.41;;;16.75
31921;BMP280;66485;52.128;4.436;2023-02-27T03:36:15;103082.31;;;16.75
31921;BMP280;66485;52.128;4.436;2023-02-27T03:41:28;103082.31;;;16.75
31921;BMP280;66485;52.128;4.436;2023-02-27T03:44:10;103088.53;;;16.75
31921;BMP280;66485;52.128;4.436;2023-02-27T03:46:38;103080.34;;;16.72
31921;BMP280;66485;52.128;4.436;2023-02-27T03:49:04;103084.94;;;16.71
31921;BMP280;66485;52.128;4.436;2023-02-27T03:51:30;103082.16;;;16.67
31921;BMP280;66485;52.128;4.436;2023-02-27T03:56:28;103080.13;;;16.64
31921;BMP280;66485;52.128;4.436;2023-02-27T03:58:56;103082.19;;;16.55
31921;BMP280;66485;52.128;4.436;2023-02-27T04:01:22;103083.00;;;16.56
31921;BMP280;66485;52.128;4.436;2023-02-27T04:03:56;103087.81;;;16.62
31921;BMP280;66485;52.128;4.436;2023-02-27T04:06:23;103087.81;;;16.62
31921;BMP280;66485;52.128;4.436;2023-02-27T04:12:09;103076.72;;;16.67
31921;BMP280;66485;52.128;4.436;2023-02-27T04:17:29;103080.22;;;16.68
31921;BMP280;66485;52.128;4.436;2023-02-27T04:22:37;103082.94;;;16.68
31921;BMP280;66485;52.128;4.436;2023-02-27T04:32:52;103095.00;;;16.71
31921;BMP280;66485;52.128;4.436;2023-02-27T04:35:25;103094.22;;;16.70
31921;BMP280;66485;52.128;4.436;2023-02-27T04:40:40;103104.75;;;16.75
31921;BMP280;66485;52.128;4.436;2023-02-27T04:43:08;103104.75;;;16.75
31921;BMP280;66485;52.128;4.436;2023-02-27T04:45:35;103099.16;;;16.68
31921;BMP280;66485;52.128;4.436;2023-02-27T04:48:27;103103.47;;;16.69
31921;BMP280;66485;52.128;4.436;2023-02-27T04:50:57;103097.28;;;16.69
31921;BMP280;66485;52.128;4.436;2023-02-27T04:53:27;103112.47;;;16.73
31921;BMP280;66485;52.128;4.436;2023-02-27T04:56:02;103108.19;;;16.72
31921;BMP280;66485;52.128;4.436;2023-02-27T04:58:33;103118.94;;;16.69
31921;BMP280;66485;52.128;4.436;2023-02-27T05:01:04;103118.94;;;16.69
31921;BMP280;66485;52.128;4.436;2023-02-27T05:03:33;103112.69;;;16.68
31921;BMP280;66485;52.128;4.436;2023-02-27T05:06:01;103113.38;;;16.65
31921;BMP280;66485;52.128;4.436;2023-02-27T05:11:25;103120.97;;;16.59
31921;BMP280;66485;52.128;4.436;2023-02-27T05:14:03;103125.63;;;16.59
31921;BMP280;66485;52.128;4.436;2023-02-27T05:16:51;103120.78;;;16.52
31921;BMP280;66485;52.128;4.436;2023-02-27T05:19:18;103131.69;;;16.56
31921;BMP280;66485;52.128;4.436;2023-02-27T05:21:50;103118.66;;;16.58
31921;BMP280;66485;52.128;4.436;2023-02-27T05:24:23;103130.66;;;16.60
31921;BMP280;66485;52.128;4.436;2023-02-27T05:29:48;103120.22;;;16.59
31921;BMP280;66485;52.128;4.436;2023-02-27T05:35:31;103122.56;;;16.60
31921;BMP280;66485;52.128;4.436;2023-02-27T05:38:05;103126.50;;;16.63
31921;BMP280;66485;52.128;4.436;2023-02-27T05:40:38;103126.50;;;16.63
31921;BMP280;66485;52.128;4.436;2023-02-27T05:43:09;103122.94;;;16.59
31921;BMP280;66485;52.128;4.436;2023-02-27T05:45:36;103121.88;;;16.63
31921;BMP280;66485;52.128;4.436;2023-02-27T05:48:10;103130.34;;;16.62
31921;BMP280;66485;52.128;4.436;2023-02-27T05:50:37;103133.13;;;16.65
31921;BMP280;66485;52.128;4.436;2023-02-27T05:53:07;103135.19;;;16.69
31921;BMP280;66485;52.128;4.436;2023-02-27T05:55:53;103143.59;;;16.67
31921;BMP280;66485;52.128;4.436;2023-02-27T05:58:25;103142.47;;;16.68
31921;BMP280;66485;52.128;4.436;2023-02-27T06:03:27;103149.03;;;16.67
31921;BMP280;66485;52.128;4.436;2023-02-27T06:05:54;103149.03;;;16.67
31921;BMP280;66485;52.128;4.436;2023-02-27T06:08:21;103149.34;;;16.65
31921;BMP280;66485;52.128;4.436;2023-02-27T06:10:46;103155.56;;;16.66
31921;BMP280;66485;52.128;4.436;2023-02-27T06:13:14;103155.91;;;16.64
31921;BMP280;66485;52.128;4.436;2023-02-27T06:15:41;103154.78;;;16.65
31921;BMP280;66485;52.128;4.436;2023-02-27T06:18:06;103156.25;;;16.63
31921;BMP280;66485;52.128;4.436;2023-02-27T06:20:31;103153.97;;;16.65
31921;BMP280;66485;52.128;4.436;2023-02-27T06:22:57;103165.50;;;16.62
31921;BMP280;66485;52.128;4.436;2023-02-27T06:25:22;103165.50;;;16.62
31921;BMP280;66485;52.128;4.436;2023-02-27T06:27:48;103166.09;;;16.55
31921;BMP280;66485;52.128;4.436;2023-02-27T06:30:13;103175.69;;;16.53
31921;BMP280;66485;52.128;4.436;2023-02-27T06:32:39;103176.38;;;16.50
31921;BMP280;66485;52.128;4.436;2023-02-27T06:35:05;103177.06;;;16.47
31921;BMP280;66485;52.128;4.436;2023-02-27T06:37:31;103183.44;;;16.54
31921;BMP280;66485;52.128;4.436;2023-02-27T06:39:56;103183.44;;;16.54
31921;BMP280;66485;52.128;4.436;2023-02-27T06:42:22;103185.94;;;16.59
31921;BMP280;66485;52.128;4.436;2023-02-27T06:44:47;103188.28;;;16.61
31921;BMP280;66485;52.128;4.436;2023-02-27T06:47:12;103188.28;;;16.61
31921;BMP280;66485;52.128;4.436;2023-02-27T06:49:38;103193.03;;;16.64
31921;BMP280;66485;52.128;4.436;2023-02-27T06:52:03;103190.66;;;16.62
31921;BMP280;66485;52.128;4.436;2023-02-27T06:54:29;103190.66;;;16.62
31921;BMP280;66485;52.128;4.436;2023-02-27T06:56:54;103189.00;;;16.58
31921;BMP280;66485;52.128;4.436;2023-02-27T06:59:20;103187.50;;;16.60
31921;BMP280;66485;52.128;4.436;2023-02-27T07:01:45;103198.44;;;16.64
31921;BMP280;66485;52.128;4.436;2023-02-27T07:04:13;103198.44;;;16.64
31921;BMP280;66485;52.128;4.436;2023-02-27T07:06:38;103207.78;;;16.66
31921;BMP280;66485;52.128;4.436;2023-02-27T07:09:03;103200.44;;;16.67
31921;BMP280;66485;52.128;4.436;2023-02-27T07:11:29;103207.88;;;16.70
31921;BMP280;66485;52.128;4.436;2023-02-27T07:13:55;103206.34;;;16.69
31921;BMP280;66485;52.128;4.436;2023-02-27T07:16:20;103203.63;;;16.69
31921;BMP280;66485;52.128;4.436;2023-02-27T07:18:45;103209.91;;;16.73
31921;BMP280;66485;52.128;4.436;2023-02-27T07:21:11;103210.59;;;16.70
31921;BMP280;66485;52.128;4.436;2023-02-27T07:23:36;103210.59;;;16.70
31921;BMP280;66485;52.128;4.436;2023-02-27T07:26:02;103218.03;;;16.73
31921;BMP280;66485;52.128;4.436;2023-02-27T07:28:28;103216.44;;;16.72
31921;BMP280;66485;52.128;4.436;2023-02-27T07:30:53;103216.44;;;16.72
31921;BMP280;66485;52.128;4.436;2023-02-27T07:33:20;103220.75;;;16.73
31921;BMP280;66485;52.128;4.436;2023-02-27T07:35:46;103223.66;;;16.68
31921;BMP280;66485;52.128;4.436;2023-02-27T07:38:11;103223.44;;;16.73
31921;BMP280;66485;52.128;4.436;2023-02-27T07:40:36;103216.78;;;16.71
31921;BMP280;66485;52.128;4.436;2023-02-27T07:43:02;103216.78;;;16.71
31921;BMP280;66485;52.128;4.436;2023-02-27T07:45:27;103224.81;;;16.67
31921;BMP280;66485;52.128;4.436;2023-02-27T07:47:52;103227.41;;;16.63
31921;BMP280;66485;52.128;4.436;2023-02-27T07:50:18;103225.28;;;16.69
31921;BMP280;66485;52.128;4.436;2023-02-27T07:52:43;103225.28;;;16.69
31921;BMP280;66485;52.128;4.436;2023-02-27T07:55:10;103229.19;;;16.72
31921;BMP280;66485;52.128;4.436;2023-02-27T07:57:36;103228.16;;;16.76
31921;BMP280;66485;52.128;4.436;2023-02-27T08:00:03;103228.16;;;16.76
31921;BMP280;66485;52.128;4.436;2023-02-27T08:02:29;103225.91;;;16.78
31921;BMP280;66485;52.128;4.436;2023-02-27T08:04:54;103221.59;;;16.77
31921;BMP280;66485;52.128;4.436;2023-02-27T08:07:19;103234.34;;;16.77
31921;BMP280;66485;52.128;4.436;2023-02-27T08:09:44;103234.34;;;16.77
31921;BMP280;66485;52.128;4.436;2023-02-27T08:12:10;103235.63;;;16.79
31921;BMP280;66485;52.128;4.436;2023-02-27T08:14:35;103235.25;;;16.81
31921;BMP280;66485;52.128;4.436;2023-02-27T08:17:00;103240.00;;;16.84
31921;BMP280;66485;52.128;4.436;2023-02-27T08:19:26;103232.28;;;16.86
31921;BMP280;66485;52.128;4.436;2023-02-27T08:21:51;103234.66;;;16.87
31921;BMP280;66485;52.128;4.436;2023-02-27T08:24:16;103231.28;;;16.90
31921;BMP280;66485;52.128;4.436;2023-02-27T08:26:42;103234.78;;;16.91
31921;BMP280;66485;52.128;4.436;2023-02-27T08:29:07;103233.19;;;16.90
31921;BMP280;66485;52.128;4.436;2023-02-27T08:31:33;103240.97;;;16.91
31921;BMP280;66485;52.128;4.436;2023-02-27T08:33:59;103239.41;;;16.90
31921;BMP280;66485;52.128;4.436;2023-02-27T08:36:24;103242.91;;;16.91
31921;BMP280;66485;52.128;4.436;2023-02-27T08:38:49;103237.13;;;16.92
31921;BMP280;66485;52.128;4.436;2023-02-27T08:41:15;103241.75;;;16.92
31921;BMP280;66485;52.128;4.436;2023-02-27T08:43:40;103238.59;;;16.90
31921;BMP280;66485;52.128;4.436;2023-02-27T08:46:05;103251.00;;;16.91
31921;BMP280;66485;52.128;4.436;2023-02-27T08:48:30;103251.00;;;16.91
31921;BMP280;66485;52.128;4.436;2023-02-27T08:50:56;103248.31;;;16.91
31921;BMP280;66485;52.128;4.436;2023-02-27T08:53:21;103245.59;;;16.91
31921;BMP280;66485;52.128;4.436;2023-02-27T08:55:50;103245.59;;;16.91
31921;BMP280;66485;52.128;4.436;2023-02-27T08:58:16;103248.31;;;16.91
31921;BMP280;66485;52.128;4.436;2023-02-27T09:00:41;103248.31;;;16.91
31921;BMP280;66485;52.128;4.436;2023-02-27T09:03:07;103247.97;;;16.92
31921;BMP280;66485;52.128;4.436;2023-02-27T09:05:32;103243.00;;;16.94
31921;BMP280;66485;52.128;4.436;2023-02-27T09:08:00;103246.91;;;16.97
31921;BMP280;66485;52.128;4.436;2023-02-27T09:10:25;103253.13;;;16.97
31921;BMP280;66485;52.128;4.436;2023-02-27T09:12:51;103254.81;;;17.02
31921;BMP280;66485;52.128;4.436;2023-02-27T09:15:16;103259.09;;;17.03
31921;BMP280;66485;52.128;4.436;2023-02-27T09:17:42;103258.75;;;17.05
31921;BMP280;66485;52.128;4.436;2023-02-27T09:20:08;103255.34;;;17.08
31921;BMP280;66485;52.128;4.436;2023-02-27T09:22:34;103266.25;;;17.11
31921;BMP280;66485;52.128;4.436;2023-02-27T09:24:59;103264.66;;;17.10
31921;BMP280;66485;52.128;4.436;2023-02-27T09:27:24;103264.66;;;17.10
31921;BMP280;66485;52.128;4.436;2023-02-27T09:29:50;103269.78;;;17.12
31921;BMP280;66485;52.128;4.436;2023-02-27T09:32:23;103267.38;;;17.10
31921;BMP280;66485;52.128;4.436;2023-02-27T09:34:49;103270.56;;;17.12
31921;BMP280;66485;52.128;4.436;2023-02-27T09:37:14;103270.56;;;17.12
31921;BMP280;66485;52.128;4.436;2023-02-27T09:39:41;103264.09;;;17.17
31921;BMP280;66485;52.128;4.436;2023-02-27T09:42:17;103273.88;;;17.21
31921;BMP280;66485;52.128;4.436;2023-02-27T09:44:47;103273.88;;;17.21
31921;BMP280;66485;52.128;4.436;2023-02-27T09:47:22;103266.03;;;17.32
31921;BMP280;66485;52.128;4.436;2023-02-27T09:49:55;103263.16;;;17.40
31921;BMP280;66485;52.128;4.436;2023-02-27T09:52:21;103270.38;;;17.49
31921;BMP280;66485;52.128;4.436;2023-02-27T09:54:47;103267.50;;;17.57
31921;BMP280;66485;52.128;4.436;2023-02-27T09:57:17;103267.50;;;17.57
31921;BMP280;66485;52.128;4.436;2023-02-27T09:59:50;103265.41;;;17.66
31921;BMP280;66485;52.128;4.436;2023-02-27T10:05:12;103279.63;;;17.95
31921;BMP280;66485;52.128;4.436;2023-02-27T10:07:49;103283.16;;;17.79
31921;BMP280;66485;52.128;4.436;2023-02-27T10:10:36;103280.25;;;17.72
31921;BMP280;66485;52.128;4.436;2023-02-27T10:15:54;103280.53;;;17.67
31921;BMP280;66485;52.128;4.436;2023-02-27T10:18:28;103283.94;;;17.64
31921;BMP280;66485;52.128;4.436;2023-02-27T10:21:10;103283.94;;;17.64
31921;BMP280;66485;52.128;4.436;2023-02-27T10:26:18;103282.38;;;17.63
31921;BMP280;66485;52.128;4.436;2023-02-27T10:28:44;103280.00;;;17.62
31921;BMP280;66485;52.128;4.436;2023-02-27T10:31:15;103280.00;;;17.62
31921;BMP280;66485;52.128;4.436;2023-02-27T10:33:43;103274.78;;;17.69
31921;BMP280;66485;52.128;4.436;2023-02-27T10:36:09;103265.06;;;17.68
31921;BMP280;66485;52.128;4.436;2023-02-27T10:38:44;103265.06;;;17.68
31921;BMP280;66485;52.128;4.436;2023-02-27T10:41:12;103277.34;;;17.65
31921;BMP280;66485;52.128;4.436;2023-02-27T10:43:39;103285.25;;;17.70
31921;BMP280;66485;52.128;4.436;2023-02-27T10:46:16;103285.25;;;17.70
31921;BMP280;66485;52.128;4.436;2023-02-27T10:48:43;103277.91;;;18.02
31921;BMP280;66485;52.128;4.436;2023-02-27T10:51:35;103273.44;;;18.10
31921;BMP280;66485;52.128;4.436;2023-02-27T10:54:20;103272.69;;;18.13
31921;BMP280;66485;52.128;4.436;2023-02-27T10:56:50;103272.69;;;18.13
31921;BMP280;66485;52.128;4.436;2023-02-27T11:01:48;103270.00;;;18.48
31921;BMP280;66485;52.128;4.436;2023-02-27T11:04:37;103266.66;;;18.54
31921;BMP280;66485;52.128;4.436;2023-02-27T11:07:09;103258.56;;;18.58
31921;BMP280;66485;52.128;4.436;2023-02-27T11:09:36;103252.88;;;18.63
31921;BMP280;66485;52.128;4.436;2023-02-27T11:12:25;103254.91;;;18.70
31921;BMP280;66485;52.128;4.436;2023-02-27T11:14:53;103254.91;;;18.70
31921;BMP280;66485;52.128;4.436;2023-02-27T11:17:26;103257.19;;;18.64
31921;BMP280;66485;52.128;4.436;2023-02-27T11:19:53;103249.66;;;18.77
31921;BMP280;66485;52.128;4.436;2023-02-27T11:22:22;103244.28;;;18.80
31921;BMP280;66485;52.128;4.436;2023-02-27T11:24:50;103236.19;;;18.84
31921;BMP280;66485;52.128;4.436;2023-02-27T11:27:27;103237.13;;;18.91
31921;BMP280;66485;52.128;4.436;2023-02-27T11:30:02;103237.19;;;18.95
31921;BMP280;66485;52.128;4.436;2023-02-27T11:32:48;103240.47;;;19.04
31921;BMP280;66485;52.128;4.436;2023-02-27T11:35:25;103244.53;;;18.94
31921;BMP280;66485;52.128;4.436;2023-02-27T11:37:54;103229.13;;;18.79
31921;BMP280;66485;52.128;4.436;2023-02-27T11:40:29;103230.19;;;18.94
31921;BMP280;66485;52.128;4.436;2023-02-27T11:42:57;103221.09;;;19.06
31921;BMP280;66485;52.128;4.436;2023-02-27T11:45:29;103221.09;;;19.06
31921;BMP280;66485;52.128;4.436;2023-02-27T11:47:59;103230.28;;;19.20
31921;BMP280;66485;52.128;4.436;2023-02-27T11:56:24;103220.03;;;18.91
31921;BMP280;66485;52.128;4.436;2023-02-27T11:59:01;103214.75;;;18.98
31921;BMP280;66485;52.128;4.436;2023-02-27T12:01:37;103209.75;;;18.81
31921;BMP280;66485;52.128;4.436;2023-02-27T12:04:32;103210.50;;;18.78
31921;BMP280;66485;52.128;4.436;2023-02-27T12:12:24;103212.78;;;18.76
31921;BMP280;66485;52.128;4.436;2023-02-27T12:17:44;103206.44;;;18.68
31921;BMP280;66485;52.128;4.436;2023-02-27T12:22:48;103204.22;;;18.54
31921;BMP280;66485;52.128;4.436;2023-02-27T12:25:32;103205.88;;;19.01
31921;BMP280;66485;52.128;4.436;2023-02-27T12:28:07;103205.88;;;19.01
31921;BMP280;66485;52.128;4.436;2023-02-27T12:30:40;103205.88;;;19.24
31921;BMP280;66485;52.128;4.436;2023-02-27T12:33:29;103205.22;;;19.30
31921;BMP280;66485;52.128;4.436;2023-02-27T12:35:59;103196.50;;;19.44
31921;BMP280;66485;52.128;4.436;2023-02-27T12:38:25;103198.44;;;19.44
31921;BMP280;66485;52.128;4.436;2023-02-27T12:41:14;103189.97;;;19.49
31921;BMP280;66485;52.128;4.436;2023-02-27T12:44:14;103191.28;;;19.58
31921;BMP280;66485;52.128;4.436;2023-02-27T12:46:49;103188.66;;;19.65
31921;BMP280;66485;52.128;4.436;2023-02-27T12:49:37;103195.38;;;19.72
31921;BMP280;66485;52.128;4.436;2023-02-27T13:00:59;103194.38;;;19.83
31921;BMP280;66485;52.128;4.436;2023-02-27T13:11:06;103193.06;;;20.03
31921;BMP280;66485;52.128;4.436;2023-02-27T13:13:39;103192.13;;;19.92
31921;BMP280;66485;52.128;4.436;2023-02-27T13:16:10;103193.53;;;20.09
31921;BMP280;66485;52.128;4.436;2023-02-27T13:21:30;103186.22;;;19.83
31921;BMP280;66485;52.128;4.436;2023-02-27T13:24:21;103186.22;;;19.83
31921;BMP280;66485;52.128;4.436;2023-02-27T13:29:42;103188.63;;;20.22
31921;BMP280;66485;52.128;4.436;2023-02-27T13:32:26;103176.97;;;20.25
31921;BMP280;66485;52.128;4.436;2023-02-27T13:35:05;103178.50;;;20.19
31921;BMP280;66485;52.128;4.436;2023-02-27T13:37:53;103180.25;;;20.37
31921;BMP280;66485;52.128;4.436;2023-02-27T13:40:48;103180.25;;;20.37
31921;BMP280;66485;52.128;4.436;2023-02-27T13:43:33;103186.22;;;20.50
31921;BMP280;66485;52.128;4.436;2023-02-27T13:46:03;103183.16;;;20.55
31921;BMP280;66485;52.128;4.436;2023-02-27T13:48:46;103184.44;;;20.61
31921;BMP280;66485;52.128;4.436;2023-02-27T13:56:45;103178.84;;;20.50
31921;BMP280;66485;52.128;4.436;2023-02-27T13:59:17;103185.78;;;20.44
31921;BMP280;66485;52.128;4.436;2023-02-27T14:01:58;103179.78;;;20.65
31921;BMP280;66485;52.128;4.436;2023-02-27T14:04:27;103189.19;;;20.75
31921;BMP280;66485;52.128;4.436;2023-02-27T14:06:59;103191.97;;;20.78
31921;BMP280;66485;52.128;4.436;2023-02-27T14:09:31;103194.31;;;20.80
31921;BMP280;66485;52.128;4.436;2023-02-27T14:12:00;103190.88;;;20.86
31921;BMP280;66485;52.128;4.436;2023-02-27T14:17:04;103192.41;;;20.14
31921;BMP280;66485;52.128;4.436;2023-02-27T14:24:54;103197.00;;;20.06
31921;BMP280;66485;52.128;4.436;2023-02-27T14:27:23;103196.84;;;19.95
31921;BMP280;66485;52.128;4.436;2023-02-27T14:29:53;103188.31;;;19.93
31921;BMP280;66485;52.128;4.436;2023-02-27T14:32:23;103188.31;;;19.93
31921;BMP280;66485;52.128;4.436;2023-02-27T14:34:50;103179.28;;;19.89
31921;BMP280;66485;52.128;4.436;2023-02-27T14:37:19;103182.66;;;20.46
31921;BMP280;66485;52.128;4.436;2023-02-27T14:39:51;103167.84;;;20.40
31921;BMP280;66485;52.128;4.436;2023-02-27T14:44:48;103170.72;;;19.87
31921;BMP280;66485;52.128;4.436;2023-02-27T14:47:37;103170.72;;;19.87
31921;BMP280;66485;52.128;4.436;2023-02-27T14:50:18;103162.75;;;19.72
31921;BMP280;66485;52.128;4.436;2023-02-27T14:52:44;103162.28;;;19.69
31921;BMP280;66485;52.128;4.436;2023-02-27T14:57:59;103169.59;;;19.62
31921;BMP280;66485;52.128;4.436;2023-02-27T15:00:33;103160.91;;;19.53
31921;BMP280;66485;52.128;4.436;2023-02-27T15:02:59;103162.00;;;19.48
31921;BMP280;66485;52.128;4.436;2023-02-27T15:05:30;103168.97;;;19.46
31921;BMP280;66485;52.128;4.436;2023-02-27T15:07:55;103168.97;;;19.46
31921;BMP280;66485;52.128;4.436;2023-02-27T15:10:28;103166.97;;;19.43
31921;BMP280;66485;52.128;4.436;2023-02-27T15:12:59;103166.97;;;19.43
31921;BMP280;66485;52.128;4.436;2023-02-27T15:15:25;103166.84;;;19.88
31921;BMP280;66485;52.128;4.436;2023-02-27T15:17:53;103155.75;;;19.74
31921;BMP280;66485;52.128;4.436;2023-02-27T15:20:30;103155.75;;;19.74
31921;BMP280;66485;52.128;4.436;2023-02-27T15:22:58;103160.47;;;19.51
31921;BMP280;66485;52.128;4.436;2023-02-27T15:25:32;103166.16;;;19.42
31921;BMP280;66485;52.128;4.436;2023-02-27T15:28:07;103168.84;;;19.39
31921;BMP280;66485;52.128;4.436;2023-02-27T15:30:38;103161.78;;;19.34
31921;BMP280;66485;52.128;4.436;2023-02-27T15:33:13;103162.44;;;19.27
31921;BMP280;66485;52.128;4.436;2023-02-27T15:35:41;103164.25;;;19.20
31921;BMP280;66485;52.128;4.436;2023-02-27T15:38:25;103164.66;;;19.18
31921;BMP280;66485;52.128;4.436;2023-02-27T15:40:51;103158.75;;;19.16
31921;BMP280;66485;52.128;4.436;2023-02-27T15:43:17;103158.75;;;19.16
31921;BMP280;66485;52.128;4.436;2023-02-27T15:45:45;103152.94;;;19.14
31921;BMP280;66485;52.128;4.436;2023-02-27T15:48:12;103168.41;;;19.10
31921;BMP280;66485;52.128;4.436;2023-02-27T15:50:42;103162.53;;;19.08
31921;BMP280;66485;52.128;4.436;2023-02-27T15:53:16;103162.53;;;19.08
31921;BMP280;66485;52.128;4.436;2023-02-27T15:55:46;103167.59;;;19.10
31921;BMP280;66485;52.128;4.436;2023-02-27T15:58:37;103175.59;;;19.25
31921;BMP280;66485;52.128;4.436;2023-02-27T16:01:16;103175.59;;;19.25
31921;BMP280;66485;52.128;4.436;2023-02-27T16:03:45;103174.13;;;19.05
31921;BMP280;66485;52.128;4.436;2023-02-27T16:06:17;103174.13;;;19.05
31921;BMP280;66485;52.128;4.436;2023-02-27T16:09:04;103165.44;;;18.96
31921;BMP280;66485;52.128;4.436;2023-02-27T16:11:32;103163.41;;;18.93
31921;BMP280;66485;52.128;4.436;2023-02-27T16:13:58;103166.91;;;18.93
31921;BMP280;66485;52.128;4.436;2023-02-27T16:16:54;103169.28;;;18.95
31921;BMP280;66485;52.128;4.436;2023-02-27T16:19:29;103169.28;;;18.95
31921;BMP280;66485;52.128;4.436;2023-02-27T16:22:16;103168.44;;;18.91
31921;BMP280;66485;52.128;4.436;2023-02-27T16:24:43;103171.13;;;19.10
31921;BMP280;66485;52.128;4.436;2023-02-27T16:29:45;103177.16;;;19.00
31921;BMP280;66485;52.128;4.436;2023-02-27T16:32:25;103184.34;;;18.92
31921;BMP280;66485;52.128;4.436;2023-02-27T16:34:59;103184.34;;;18.92
31921;BMP280;66485;52.128;4.436;2023-02-27T16:37:31;103181.19;;;18.87
31921;BMP280;66485;52.128;4.436;2023-02-27T16:39:58;103174.09;;;18.82